sensor_id;sensor_type;location;lat;lon;timestamp;temperature;humidity
82243;DHT22;71844;51.528;4.442;2023-08-24T00:00:47;21.10;60.70
82243;DHT22;71844;51.528;4.442;2023-08-24T00:03:14;21.10;60.70
82243;DHT22;71844;51.528;4.442;2023-08-24T00:05:41;21.10;60.80
82243;DHT22;71844;51.528;4.442;2023-08-24T00:08:10;21.10;60.80
82243;DHT22;71844;51.528;4.442;2023-08-24T00:10:37;21.10;60.90
82243;DHT22;71844;51.528;4.442;2023-08-24T00:13:04;21.00;61.00
82243;DHT22;71844;51.528;4.442;2023-08-24T00:15:31;21.00;61.10
82243;DHT22;71844;51.528;4.442;2023-08-24T00:17:58;21.00;61.10
82243;DHT22;71844;51.528;4.442;2023-08-24T00:20:25;20.90;61.20
82243;DHT22;71844;51.528;4.442;2023-08-24T00:22:53;20.90;61.30
82243;DHT22;71844;51.528;4.442;2023-08-24T00:25:24;20.90;61.40
82243;DHT22;71844;51.528;4.442;2023-08-24T00:27:53;20.90;61.50
82243;DHT22;71844;51.528;4.442;2023-08-24T00:30:21;20.90;61.50
82243;DHT22;71844;51.528;4.442;2023-08-24T00:32:48;20.90;61.70
82243;DHT22;71844;51.528;4.442;2023-08-24T00:35:15;20.90;61.70
82243;DHT22;71844;51.528;4.442;2023-08-24T00:37:42;20.90;61.80
82243;DHT22;71844;51.528;4.442;2023-08-24T00:40:09;20.90;61.90
82243;DHT22;71844;51.528;4.442;2023-08-24T00:42:38;21.00;61.80
82243;DHT22;71844;51.528;4.442;2023-08-24T00:45:07;21.00;61.90
82243;DHT22;71844;51.528;4.442;2023-08-24T00:47:40;21.00;61.90
82243;DHT22;71844;51.528;4.442;2023-08-24T00:50:08;21.00;61.90
82243;DHT22;71844;51.528;4.442;2023-08-24T00:52:37;21.00;62.00
82243;DHT22;71844;51.528;4.442;2023-08-24T00:55:07;20.90;62.30
82243;DHT22;71844;51.528;4.442;2023-08-24T00:57:35;21.00;62.50
82243;DHT22;71844;51.528;4.442;2023-08-24T01:00:06;20.90;62.60
82243;DHT22;71844;51.528;4.442;2023-08-24T01:02:37;20.90;62.80
82243;DHT22;71844;51.528;4.442;2023-08-24T01:05:05;20.90;62.90
82243;DHT22;71844;51.528;4.442;2023-08-24T01:07:34;20.80;63.00
82243;DHT22;71844;51.528;4.442;2023-08-24T01:10:03;20.80;63.00
82243;DHT22;71844;51.528;4.442;2023-08-24T01:18:06;20.80;63.10
82243;DHT22;71844;51.528;4.442;2023-08-24T01:20:36;20.80;63.20
82243;DHT22;71844;51.528;4.442;2023-08-24T01:23:05;20.80;63.30
82243;DHT22;71844;51.528;4.442;2023-08-24T01:28:01;20.70;63.60
82243;DHT22;71844;51.528;4.442;2023-08-24T01:30:29;20.80;63.60
82243;DHT22;71844;51.528;4.442;2023-08-24T01:32:57;20.80;63.60
82243;DHT22;71844;51.528;4.442;2023-08-24T01:35:24;20.80;63.60
82243;DHT22;71844;51.528;4.442;2023-08-24T01:37:51;20.80;63.60
82243;DHT22;71844;51.528;4.442;2023-08-24T01:40:22;20.80;63.70
82243;DHT22;71844;51.528;4.442;2023-08-24T01:42:59;20.80;63.70
82243;DHT22;71844;51.528;4.442;2023-08-24T01:45:29;20.80;64.10
82243;DHT22;71844;51.528;4.442;2023-08-24T01:47:57;20.70;64.10
82243;DHT22;71844;51.528;4.442;2023-08-24T01:50:25;20.70;64.30
82243;DHT22;71844;51.528;4.442;2023-08-24T01:53:06;20.70;64.60
82243;DHT22;71844;51.528;4.442;2023-08-24T01:55:33;20.80;64.80
82243;DHT22;71844;51.528;4.442;2023-08-24T01:58:00;20.70;65.10
82243;DHT22;71844;51.528;4.442;2023-08-24T02:00:27;20.70;65.30
82243;DHT22;71844;51.528;4.442;2023-08-24T02:02:55;20.70;65.50
82243;DHT22;71844;51.528;4.442;2023-08-24T02:05:22;20.60;66.00
82243;DHT22;71844;51.528;4.442;2023-08-24T02:07:54;20.60;66.10
82243;DHT22;71844;51.528;4.442;2023-08-24T02:10:21;20.50;66.50
82243;DHT22;71844;51.528;4.442;2023-08-24T02:12:48;20.40;66.80
82243;DHT22;71844;51.528;4.442;2023-08-24T02:15:15;20.40;66.90
82243;DHT22;71844;51.528;4.442;2023-08-24T02:17:42;20.30;67.10
82243;DHT22;71844;51.528;4.442;2023-08-24T02:20:09;20.20;67.60
82243;DHT22;71844;51.528;4.442;2023-08-24T02:22:38;20.10;67.80
82243;DHT22;71844;51.528;4.442;2023-08-24T02:25:06;20.10;68.00
82243;DHT22;71844;51.528;4.442;2023-08-24T02:27:35;20.10;68.30
82243;DHT22;71844;51.528;4.442;2023-08-24T02:30:02;20.10;68.40
82243;DHT22;71844;51.528;4.442;2023-08-24T02:32:29;20.00;68.30
82243;DHT22;71844;51.528;4.442;2023-08-24T02:34:56;20.00;68.50
82243;DHT22;71844;51.528;4.442;2023-08-24T02:37:23;20.00;68.40
82243;DHT22;71844;51.528;4.442;2023-08-24T02:39:50;20.00;68.70
82243;DHT22;71844;51.528;4.442;2023-08-24T02:42:17;19.90;68.80
82243;DHT22;71844;51.528;4.442;2023-08-24T02:44:44;19.90;68.80
82243;DHT22;71844;51.528;4.442;2023-08-24T02:47:11;19.90;68.90
82243;DHT22;71844;51.528;4.442;2023-08-24T02:49:38;19.90;68.80
82243;DHT22;71844;51.528;4.442;2023-08-24T02:52:05;19.90;68.90
82243;DHT22;71844;51.528;4.442;2023-08-24T02:54:32;19.90;68.70
82243;DHT22;71844;51.528;4.442;2023-08-24T02:56:59;19.90;68.70
82243;DHT22;71844;51.528;4.442;2023-08-24T02:59:26;19.90;68.80
82243;DHT22;71844;51.528;4.442;2023-08-24T03:01:53;19.90;68.70
82243;DHT22;71844;51.528;4.442;2023-08-24T03:04:20;19.90;68.80
82243;DHT22;71844;51.528;4.442;2023-08-24T03:06:48;19.90;68.90
82243;DHT22;71844;51.528;4.442;2023-08-24T03:09:17;19.90;68.90
82243;DHT22;71844;51.528;4.442;2023-08-24T03:11:44;19.90;68.90
82243;DHT22;71844;51.528;4.442;2023-08-24T03:14:11;19.80;69.10
82243;DHT22;71844;51.528;4.442;2023-08-24T03:16:38;19.80;69.10
82243;DHT22;71844;51.528;4.442;2023-08-24T03:19:08;19.70;69.30
82243;DHT22;71844;51.528;4.442;2023-08-24T03:21:35;19.70;69.50
82243;DHT22;71844;51.528;4.442;2023-08-24T03:24:02;19.70;69.50
82243;DHT22;71844;51.528;4.442;2023-08-24T03:26:31;19.70;69.60
82243;DHT22;71844;51.528;4.442;2023-08-24T03:28:58;19.70;69.60
82243;DHT22;71844;51.528;4.442;2023-08-24T03:31:25;19.70;69.60
82243;DHT22;71844;51.528;4.442;2023-08-24T03:33:53;19.70;69.80
82243;DHT22;71844;51.528;4.442;2023-08-24T03:36:20;19.70;69.80
82243;DHT22;71844;51.528;4.442;2023-08-24T03:38:47;19.60;69.90
82243;DHT22;71844;51.528;4.442;2023-08-24T03:41:14;19.60;69.90
82243;DHT22;71844;51.528;4.442;2023-08-24T03:43:41;19.60;70.20
82243;DHT22;71844;51.528;4.442;2023-08-24T03:46:08;19.60;70.30
82243;DHT22;71844;51.528;4.442;2023-08-24T03:48:35;19.50;70.30
82243;DHT22;71844;51.528;4.442;2023-08-24T03:51:02;19.50;70.40
82243;DHT22;71844;51.528;4.442;2023-08-24T03:53:29;19.50;70.50
82243;DHT22;71844;51.528;4.442;2023-08-24T03:55:56;19.50;70.60
82243;DHT22;71844;51.528;4.442;2023-08-24T03:58:23;19.50;70.70
82243;DHT22;71844;51.528;4.442;2023-08-24T04:00:50;19.50;70.60
82243;DHT22;71844;51.528;4.442;2023-08-24T04:03:18;19.50;70.70
82243;DHT22;71844;51.528;4.442;2023-08-24T04:05:45;19.50;70.70
82243;DHT22;71844;51.528;4.442;2023-08-24T04:08:12;19.50;70.80
82243;DHT22;71844;51.528;4.442;2023-08-24T04:10:39;19.50;70.90
82243;DHT22;71844;51.528;4.442;2023-08-24T04:13:06;19.50;70.90
82243;DHT22;71844;51.528;4.442;2023-08-24T04:15:33;19.40;71.00
82243;DHT22;71844;51.528;4.442;2023-08-24T04:18:00;19.40;71.10
82243;DHT22;71844;51.528;4.442;2023-08-24T04:20:27;19.50;71.10
82243;DHT22;71844;51.528;4.442;2023-08-24T04:22:55;19.40;71.10
82243;DHT22;71844;51.528;4.442;2023-08-24T04:25:23;19.40;71.20
82243;DHT22;71844;51.528;4.442;2023-08-24T04:27:50;19.40;71.30
82243;DHT22;71844;51.528;4.442;2023-08-24T04:30:17;19.40;71.40
82243;DHT22;71844;51.528;4.442;2023-08-24T04:32:44;19.50;71.40
82243;DHT22;71844;51.528;4.442;2023-08-24T04:35:11;19.50;71.50
82243;DHT22;71844;51.528;4.442;2023-08-24T04:37:38;19.50;71.50
82243;DHT22;71844;51.528;4.442;2023-08-24T04:40:06;19.50;71.50
82243;DHT22;71844;51.528;4.442;2023-08-24T04:42:33;19.50;71.50
82243;DHT22;71844;51.528;4.442;2023-08-24T04:45:01;19.60;71.40
82243;DHT22;71844;51.528;4.442;2023-08-24T04:47:28;19.60;71.50
82243;DHT22;71844;51.528;4.442;2023-08-24T04:49:55;19.60;71.50
82243;DHT22;71844;51.528;4.442;2023-08-24T04:52:22;19.60;71.40
82243;DHT22;71844;51.528;4.442;2023-08-24T04:54:49;19.60;71.40
82243;DHT22;71844;51.528;4.442;2023-08-24T04:57:17;19.50;71.60
82243;DHT22;71844;51.528;4.442;2023-08-24T04:59:44;19.50;71.70
82243;DHT22;71844;51.528;4.442;2023-08-24T05:02:11;19.50;71.80
82243;DHT22;71844;51.528;4.442;2023-08-24T05:04:38;19.50;71.70
82243;DHT22;71844;51.528;4.442;2023-08-24T05:07:05;19.50;71.70
82243;DHT22;71844;51.528;4.442;2023-08-24T05:09:32;19.50;71.80
82243;DHT22;71844;51.528;4.442;2023-08-24T05:11:59;19.50;71.90
82243;DHT22;71844;51.528;4.442;2023-08-24T05:14:26;19.40;71.90
82243;DHT22;71844;51.528;4.442;2023-08-24T05:16:53;19.40;72.00
82243;DHT22;71844;51.528;4.442;2023-08-24T05:19:20;19.50;71.90
82243;DHT22;71844;51.528;4.442;2023-08-24T05:21:47;19.50;72.00
82243;DHT22;71844;51.528;4.442;2023-08-24T05:24:13;19.50;72.00
82243;DHT22;71844;51.528;4.442;2023-08-24T05:26:40;19.50;72.00
82243;DHT22;71844;51.528;4.442;2023-08-24T05:29:07;19.40;71.90
82243;DHT22;71844;51.528;4.442;2023-08-24T05:31:34;19.50;72.00
82243;DHT22;71844;51.528;4.442;2023-08-24T05:34:01;19.50;72.00
82243;DHT22;71844;51.528;4.442;2023-08-24T05:36:28;19.50;72.00
82243;DHT22;71844;51.528;4.442;2023-08-24T05:38:55;19.60;71.90
82243;DHT22;71844;51.528;4.442;2023-08-24T05:41:32;19.60;71.90
82243;DHT22;71844;51.528;4.442;2023-08-24T05:43:59;19.60;71.80
82243;DHT22;71844;51.528;4.442;2023-08-24T05:46:26;19.60;71.70
82243;DHT22;71844;51.528;4.442;2023-08-24T05:49:02;19.70;71.70
82243;DHT22;71844;51.528;4.442;2023-08-24T05:51:29;19.70;71.70
82243;DHT22;71844;51.528;4.442;2023-08-24T05:53:56;19.70;71.70
82243;DHT22;71844;51.528;4.442;2023-08-24T05:56:25;19.70;71.60
82243;DHT22;71844;51.528;4.442;2023-08-24T05:58:53;19.80;71.50
82243;DHT22;71844;51.528;4.442;2023-08-24T06:01:20;19.80;71.50
82243;DHT22;71844;51.528;4.442;2023-08-24T06:03:47;19.80;71.50
82243;DHT22;71844;51.528;4.442;2023-08-24T06:06:14;19.90;71.30
82243;DHT22;71844;51.528;4.442;2023-08-24T06:08:41;19.90;71.40
82243;DHT22;71844;51.528;4.442;2023-08-24T06:11:08;19.90;71.20
82243;DHT22;71844;51.528;4.442;2023-08-24T06:13:35;19.90;71.20
82243;DHT22;71844;51.528;4.442;2023-08-24T06:16:03;20.00;71.10
82243;DHT22;71844;51.528;4.442;2023-08-24T06:18:29;20.00;71.00
82243;DHT22;71844;51.528;4.442;2023-08-24T06:20:56;20.00;70.90
82243;DHT22;71844;51.528;4.442;2023-08-24T06:23:23;20.10;70.90
82243;DHT22;71844;51.528;4.442;2023-08-24T06:25:51;20.10;70.90
82243;DHT22;71844;51.528;4.442;2023-08-24T06:28:18;20.20;70.80
82243;DHT22;71844;51.528;4.442;2023-08-24T06:30:45;20.20;70.60
82243;DHT22;71844;51.528;4.442;2023-08-24T06:33:16;20.30;70.50
82243;DHT22;71844;51.528;4.442;2023-08-24T06:35:43;20.30;70.40
82243;DHT22;71844;51.528;4.442;2023-08-24T06:38:10;20.40;70.40
82243;DHT22;71844;51.528;4.442;2023-08-24T06:40:37;20.40;70.30
82243;DHT22;71844;51.528;4.442;2023-08-24T06:43:04;20.50;70.10
82243;DHT22;71844;51.528;4.442;2023-08-24T06:45:31;20.60;70.10
82243;DHT22;71844;51.528;4.442;2023-08-24T06:47:58;20.60;70.00
82243;DHT22;71844;51.528;4.442;2023-08-24T06:50:25;20.70;70.00
82243;DHT22;71844;51.528;4.442;2023-08-24T06:52:53;20.80;69.80
82243;DHT22;71844;51.528;4.442;2023-08-24T06:55:20;20.90;69.70
82243;DHT22;71844;51.528;4.442;2023-08-24T06:57:48;21.00;69.60
82243;DHT22;71844;51.528;4.442;2023-08-24T07:00:19;21.10;69.40
82243;DHT22;71844;51.528;4.442;2023-08-24T07:02:50;21.20;69.30
82243;DHT22;71844;51.528;4.442;2023-08-24T07:05:18;21.30;69.20
82243;DHT22;71844;51.528;4.442;2023-08-24T07:07:46;21.40;69.10
82243;DHT22;71844;51.528;4.442;2023-08-24T07:10:15;21.50;68.90
82243;DHT22;71844;51.528;4.442;2023-08-24T07:12:42;21.60;68.70
82243;DHT22;71844;51.528;4.442;2023-08-24T07:15:12;21.70;68.60
82243;DHT22;71844;51.528;4.442;2023-08-24T07:17:39;21.90;68.50
82243;DHT22;71844;51.528;4.442;2023-08-24T07:20:06;22.00;68.20
82243;DHT22;71844;51.528;4.442;2023-08-24T07:22:38;22.10;68.00
82243;DHT22;71844;51.528;4.442;2023-08-24T07:25:05;22.20;67.80
82243;DHT22;71844;51.528;4.442;2023-08-24T07:27:33;22.40;67.60
82243;DHT22;71844;51.528;4.442;2023-08-24T07:30:02;22.50;67.30
82243;DHT22;71844;51.528;4.442;2023-08-24T07:32:56;22.50;67.10
82243;DHT22;71844;51.528;4.442;2023-08-24T07:35:23;22.60;66.80
82243;DHT22;71844;51.528;4.442;2023-08-24T07:37:53;22.70;66.60
82243;DHT22;71844;51.528;4.442;2023-08-24T07:40:20;22.70;66.60
82243;DHT22;71844;51.528;4.442;2023-08-24T07:42:49;22.70;66.50
82243;DHT22;71844;51.528;4.442;2023-08-24T07:45:20;22.80;66.40
82243;DHT22;71844;51.528;4.442;2023-08-24T07:47:47;22.80;66.30
82243;DHT22;71844;51.528;4.442;2023-08-24T07:50:15;22.80;66.30
82243;DHT22;71844;51.528;4.442;2023-08-24T07:52:42;22.80;66.40
82243;DHT22;71844;51.528;4.442;2023-08-24T07:55:09;22.90;66.40
82243;DHT22;71844;51.528;4.442;2023-08-24T07:57:37;23.00;66.30
82243;DHT22;71844;51.528;4.442;2023-08-24T08:00:05;23.00;66.20
82243;DHT22;71844;51.528;4.442;2023-08-24T08:02:36;23.10;66.10
82243;DHT22;71844;51.528;4.442;2023-08-24T08:05:06;23.20;66.00
82243;DHT22;71844;51.528;4.442;2023-08-24T08:07:39;23.20;65.90
82243;DHT22;71844;51.528;4.442;2023-08-24T08:10:07;23.30;65.80
82243;DHT22;71844;51.528;4.442;2023-08-24T08:12:34;23.30;65.70
82243;DHT22;71844;51.528;4.442;2023-08-24T08:15:02;23.30;65.50
82243;DHT22;71844;51.528;4.442;2023-08-24T08:17:29;23.30;65.40
82243;DHT22;71844;51.528;4.442;2023-08-24T08:19:57;23.40;65.40
82243;DHT22;71844;51.528;4.442;2023-08-24T08:22:27;23.40;65.30
82243;DHT22;71844;51.528;4.442;2023-08-24T08:24:54;23.50;65.30
82243;DHT22;71844;51.528;4.442;2023-08-24T08:27:23;23.50;65.30
82243;DHT22;71844;51.528;4.442;2023-08-24T08:29:50;23.50;65.20
82243;DHT22;71844;51.528;4.442;2023-08-24T08:32:17;23.40;65.20
82243;DHT22;71844;51.528;4.442;2023-08-24T08:34:44;23.40;65.20
82243;DHT22;71844;51.528;4.442;2023-08-24T08:37:11;23.40;65.30
82243;DHT22;71844;51.528;4.442;2023-08-24T08:39:38;23.50;65.50
82243;DHT22;71844;51.528;4.442;2023-08-24T08:42:11;23.50;65.50
82243;DHT22;71844;51.528;4.442;2023-08-24T08:44:38;23.60;65.40
82243;DHT22;71844;51.528;4.442;2023-08-24T08:47:07;23.60;65.30
82243;DHT22;71844;51.528;4.442;2023-08-24T08:49:35;23.60;65.00
82243;DHT22;71844;51.528;4.442;2023-08-24T08:52:03;23.60;65.10
82243;DHT22;71844;51.528;4.442;2023-08-24T08:54:31;23.60;65.10
82243;DHT22;71844;51.528;4.442;2023-08-24T08:57:01;23.60;65.10
82243;DHT22;71844;51.528;4.442;2023-08-24T08:59:28;23.60;65.10
82243;DHT22;71844;51.528;4.442;2023-08-24T09:01:57;23.60;65.20
82243;DHT22;71844;51.528;4.442;2023-08-24T09:04:29;23.70;65.20
82243;DHT22;71844;51.528;4.442;2023-08-24T09:06:57;23.70;65.10
82243;DHT22;71844;51.528;4.442;2023-08-24T09:09:26;23.70;65.40
82243;DHT22;71844;51.528;4.442;2023-08-24T09:11:53;23.70;65.10
82243;DHT22;71844;51.528;4.442;2023-08-24T09:14:20;23.70;65.10
82243;DHT22;71844;51.528;4.442;2023-08-24T09:16:47;23.60;65.20
82243;DHT22;71844;51.528;4.442;2023-08-24T09:19:14;23.70;65.30
82243;DHT22;71844;51.528;4.442;2023-08-24T09:21:41;23.70;65.40
82243;DHT22;71844;51.528;4.442;2023-08-24T09:24:10;23.70;65.50
82243;DHT22;71844;51.528;4.442;2023-08-24T09:26:38;23.70;65.50
82243;DHT22;71844;51.528;4.442;2023-08-24T09:29:15;23.70;65.50
82243;DHT22;71844;51.528;4.442;2023-08-24T09:31:43;23.70;65.50
82243;DHT22;71844;51.528;4.442;2023-08-24T09:34:13;23.70;65.60
82243;DHT22;71844;51.528;4.442;2023-08-24T09:36:40;23.70;65.60
82243;DHT22;71844;51.528;4.442;2023-08-24T09:39:07;23.60;65.70
82243;DHT22;71844;51.528;4.442;2023-08-24T09:41:43;23.60;65.80
82243;DHT22;71844;51.528;4.442;2023-08-24T09:44:10;23.60;65.80
82243;DHT22;71844;51.528;4.442;2023-08-24T09:46:39;23.70;65.90
82243;DHT22;71844;51.528;4.442;2023-08-24T09:49:10;23.60;65.90
82243;DHT22;71844;51.528;4.442;2023-08-24T09:51:39;23.60;65.90
82243;DHT22;71844;51.528;4.442;2023-08-24T09:54:08;23.60;66.00
82243;DHT22;71844;51.528;4.442;2023-08-24T09:56:37;23.60;66.20
82243;DHT22;71844;51.528;4.442;2023-08-24T09:59:12;23.60;66.30
82243;DHT22;71844;51.528;4.442;2023-08-24T10:01:42;23.60;66.50
82243;DHT22;71844;51.528;4.442;2023-08-24T10:04:12;23.60;66.30
82243;DHT22;71844;51.528;4.442;2023-08-24T10:06:40;23.60;66.40
82243;DHT22;71844;51.528;4.442;2023-08-24T10:09:14;23.50;66.40
82243;DHT22;71844;51.528;4.442;2023-08-24T10:11:50;23.50;66.50
82243;DHT22;71844;51.528;4.442;2023-08-24T10:14:27;23.50;66.60
82243;DHT22;71844;51.528;4.442;2023-08-24T10:16:55;23.50;66.80
82243;DHT22;71844;51.528;4.442;2023-08-24T10:19:23;23.50;66.80
82243;DHT22;71844;51.528;4.442;2023-08-24T10:21:53;23.50;66.90
82243;DHT22;71844;51.528;4.442;2023-08-24T10:24:24;23.50;66.90
82243;DHT22;71844;51.528;4.442;2023-08-24T10:26:52;23.40;67.10
82243;DHT22;71844;51.528;4.442;2023-08-24T10:29:20;23.40;67.30
82243;DHT22;71844;51.528;4.442;2023-08-24T10:31:48;23.40;67.50
82243;DHT22;71844;51.528;4.442;2023-08-24T10:34:16;23.40;67.60
82243;DHT22;71844;51.528;4.442;2023-08-24T10:36:43;23.30;67.80
82243;DHT22;71844;51.528;4.442;2023-08-24T10:39:14;23.30;68.00
82243;DHT22;71844;51.528;4.442;2023-08-24T10:41:52;23.30;68.10
82243;DHT22;71844;51.528;4.442;2023-08-24T10:44:34;23.30;68.20
82243;DHT22;71844;51.528;4.442;2023-08-24T10:47:12;23.40;68.50
82243;DHT22;71844;51.528;4.442;2023-08-24T10:49:44;23.40;68.20
82243;DHT22;71844;51.528;4.442;2023-08-24T10:52:25;23.40;68.10
82243;DHT22;71844;51.528;4.442;2023-08-24T10:54:53;23.50;68.10
82243;DHT22;71844;51.528;4.442;2023-08-24T10:57:24;23.50;68.10
82243;DHT22;71844;51.528;4.442;2023-08-24T11:02:45;23.50;68.10
82243;DHT22;71844;51.528;4.442;2023-08-24T11:05:21;23.50;67.90
82243;DHT22;71844;51.528;4.442;2023-08-24T11:07:50;23.60;68.00
82243;DHT22;71844;51.528;4.442;2023-08-24T11:10:17;23.60;68.20
82243;DHT22;71844;51.528;4.442;2023-08-24T11:15:37;23.80;68.60
82243;DHT22;71844;51.528;4.442;2023-08-24T11:18:24;23.90;68.50
82243;DHT22;71844;51.528;4.442;2023-08-24T11:21:01;24.00;69.80
82243;DHT22;71844;51.528;4.442;2023-08-24T11:23:31;24.20;68.60
82243;DHT22;71844;51.528;4.442;2023-08-24T11:25:59;24.30;68.80
82243;DHT22;71844;51.528;4.442;2023-08-24T11:28:30;24.50;68.70
82243;DHT22;71844;51.528;4.442;2023-08-24T11:30:58;24.60;68.80
82243;DHT22;71844;51.528;4.442;2023-08-24T11:33:33;24.70;68.50
82243;DHT22;71844;51.528;4.442;2023-08-24T11:36:03;24.80;68.40
82243;DHT22;71844;51.528;4.442;2023-08-24T11:38:40;25.00;68.30
82243;DHT22;71844;51.528;4.442;2023-08-24T11:41:16;25.20;68.10
82243;DHT22;71844;51.528;4.442;2023-08-24T11:43:44;25.40;67.80
82243;DHT22;71844;51.528;4.442;2023-08-24T11:46:12;25.60;67.50
82243;DHT22;71844;51.528;4.442;2023-08-24T11:48:41;25.80;67.30
82243;DHT22;71844;51.528;4.442;2023-08-24T11:51:09;26.20;66.90
82243;DHT22;71844;51.528;4.442;2023-08-24T11:53:44;26.60;66.10
82243;DHT22;71844;51.528;4.442;2023-08-24T11:56:12;26.90;64.70
82243;DHT22;71844;51.528;4.442;2023-08-24T11:58:40;27.40;64.20
82243;DHT22;71844;51.528;4.442;2023-08-24T12:01:11;28.10;62.80
82243;DHT22;71844;51.528;4.442;2023-08-24T12:03:39;28.70;60.70
82243;DHT22;71844;51.528;4.442;2023-08-24T12:06:12;29.30;59.90
82243;DHT22;71844;51.528;4.442;2023-08-24T12:08:41;29.90;57.80
82243;DHT22;71844;51.528;4.442;2023-08-24T12:11:19;30.30;56.40
82243;DHT22;71844;51.528;4.442;2023-08-24T12:13:51;30.70;54.40
82243;DHT22;71844;51.528;4.442;2023-08-24T12:16:22;30.80;54.40
82243;DHT22;71844;51.528;4.442;2023-08-24T12:18:57;31.00;51.80
82243;DHT22;71844;51.528;4.442;2023-08-24T12:21:30;31.00;52.70
82243;DHT22;71844;51.528;4.442;2023-08-24T12:24:01;30.90;52.70
82243;DHT22;71844;51.528;4.442;2023-08-24T12:26:30;30.80;52.10
82243;DHT22;71844;51.528;4.442;2023-08-24T12:29:05;30.40;51.90
82243;DHT22;71844;51.528;4.442;2023-08-24T12:31:33;30.10;51.90
82243;DHT22;71844;51.528;4.442;2023-08-24T12:34:08;29.70;52.30
82243;DHT22;71844;51.528;4.442;2023-08-24T12:36:38;29.50;52.10
82243;DHT22;71844;51.528;4.442;2023-08-24T12:39:07;29.30;52.60
82243;DHT22;71844;51.528;4.442;2023-08-24T12:41:37;29.20;52.60
82243;DHT22;71844;51.528;4.442;2023-08-24T12:44:04;29.10;52.60
82243;DHT22;71844;51.528;4.442;2023-08-24T12:46:35;29.10;52.70
82243;DHT22;71844;51.528;4.442;2023-08-24T12:49:03;29.00;52.70
82243;DHT22;71844;51.528;4.442;2023-08-24T12:51:30;28.90;53.00
82243;DHT22;71844;51.528;4.442;2023-08-24T12:53:57;28.80;53.10
82243;DHT22;71844;51.528;4.442;2023-08-24T12:56:24;28.70;53.40
82243;DHT22;71844;51.528;4.442;2023-08-24T12:58:51;28.60;53.30
82243;DHT22;71844;51.528;4.442;2023-08-24T13:01:18;28.50;53.50
82243;DHT22;71844;51.528;4.442;2023-08-24T13:03:45;28.40;53.60
82243;DHT22;71844;51.528;4.442;2023-08-24T13:06:12;28.40;53.60
82243;DHT22;71844;51.528;4.442;2023-08-24T13:08:52;28.30;53.70
82243;DHT22;71844;51.528;4.442;2023-08-24T13:11:19;28.20;53.80
82243;DHT22;71844;51.528;4.442;2023-08-24T13:13:46;28.20;54.10
82243;DHT22;71844;51.528;4.442;2023-08-24T13:16:13;28.10;54.30
82243;DHT22;71844;51.528;4.442;2023-08-24T13:18:41;28.00;54.40
82243;DHT22;71844;51.528;4.442;2023-08-24T13:21:08;28.00;54.80
82243;DHT22;71844;51.528;4.442;2023-08-24T13:23:35;27.90;54.80
82243;DHT22;71844;51.528;4.442;2023-08-24T13:26:02;27.90;54.90
82243;DHT22;71844;51.528;4.442;2023-08-24T13:28:29;27.90;55.10
82243;DHT22;71844;51.528;4.442;2023-08-24T13:30:56;27.90;55.20
82243;DHT22;71844;51.528;4.442;2023-08-24T13:33:26;27.90;55.10
82243;DHT22;71844;51.528;4.442;2023-08-24T13:35:53;28.00;55.10
82243;DHT22;71844;51.528;4.442;2023-08-24T13:38:20;28.00;55.10
82243;DHT22;71844;51.528;4.442;2023-08-24T13:40:47;28.00;55.10
82243;DHT22;71844;51.528;4.442;2023-08-24T13:43:16;28.00;55.00
82243;DHT22;71844;51.528;4.442;2023-08-24T13:45:43;28.00;54.70
82243;DHT22;71844;51.528;4.442;2023-08-24T13:48:10;28.00;54.80
82243;DHT22;71844;51.528;4.442;2023-08-24T13:50:38;28.00;54.70
82243;DHT22;71844;51.528;4.442;2023-08-24T13:53:05;28.00;54.70
82243;DHT22;71844;51.528;4.442;2023-08-24T13:55:32;27.90;54.80
82243;DHT22;71844;51.528;4.442;2023-08-24T13:57:59;27.90;55.00
82243;DHT22;71844;51.528;4.442;2023-08-24T14:00:26;27.90;55.20
82243;DHT22;71844;51.528;4.442;2023-08-24T14:02:53;27.90;55.50
82243;DHT22;71844;51.528;4.442;2023-08-24T14:05:21;27.90;55.10
82243;DHT22;71844;51.528;4.442;2023-08-24T14:07:48;27.90;55.10
82243;DHT22;71844;51.528;4.442;2023-08-24T14:10:15;27.80;55.20
82243;DHT22;71844;51.528;4.442;2023-08-24T14:12:42;27.80;55.30
82243;DHT22;71844;51.528;4.442;2023-08-24T14:15:11;27.80;55.40
82243;DHT22;71844;51.528;4.442;2023-08-24T14:17:38;27.80;55.30
82243;DHT22;71844;51.528;4.442;2023-08-24T14:20:09;27.70;55.40
82243;DHT22;71844;51.528;4.442;2023-08-24T14:22:36;27.70;55.40
82243;DHT22;71844;51.528;4.442;2023-08-24T14:25:03;27.70;55.60
82243;DHT22;71844;51.528;4.442;2023-08-24T14:27:30;27.60;55.80
82243;DHT22;71844;51.528;4.442;2023-08-24T14:29:57;27.50;56.00
82243;DHT22;71844;51.528;4.442;2023-08-24T14:32:23;27.50;56.10
82243;DHT22;71844;51.528;4.442;2023-08-24T14:34:50;27.50;56.20
82243;DHT22;71844;51.528;4.442;2023-08-24T14:37:17;27.60;56.30
82243;DHT22;71844;51.528;4.442;2023-08-24T14:39:44;27.70;56.20
82243;DHT22;71844;51.528;4.442;2023-08-24T14:42:12;27.80;56.10
82243;DHT22;71844;51.528;4.442;2023-08-24T14:44:39;27.80;55.90
82243;DHT22;71844;51.528;4.442;2023-08-24T14:47:06;27.80;55.80
82243;DHT22;71844;51.528;4.442;2023-08-24T14:49:33;27.70;55.90
82243;DHT22;71844;51.528;4.442;2023-08-24T14:52:02;27.70;56.10
82243;DHT22;71844;51.528;4.442;2023-08-24T14:54:30;27.60;56.10
82243;DHT22;71844;51.528;4.442;2023-08-24T14:56:57;27.60;56.10
82243;DHT22;71844;51.528;4.442;2023-08-24T14:59:25;27.50;56.20
82243;DHT22;71844;51.528;4.442;2023-08-24T15:01:52;27.50;56.20
82243;DHT22;71844;51.528;4.442;2023-08-24T15:04:20;27.40;56.40
82243;DHT22;71844;51.528;4.442;2023-08-24T15:06:47;27.40;56.40
82243;DHT22;71844;51.528;4.442;2023-08-24T15:09:14;27.40;56.50
82243;DHT22;71844;51.528;4.442;2023-08-24T15:11:41;27.60;56.20
82243;DHT22;71844;51.528;4.442;2023-08-24T15:14:08;27.60;56.00
82243;DHT22;71844;51.528;4.442;2023-08-24T15:16:35;27.70;55.70
82243;DHT22;71844;51.528;4.442;2023-08-24T15:19:02;27.80;55.50
82243;DHT22;71844;51.528;4.442;2023-08-24T15:21:29;27.70;55.40
82243;DHT22;71844;51.528;4.442;2023-08-24T15:23:56;27.70;55.40
82243;DHT22;71844;51.528;4.442;2023-08-24T15:26:23;27.60;55.50
82243;DHT22;71844;51.528;4.442;2023-08-24T15:29:17;27.60;55.60
82243;DHT22;71844;51.528;4.442;2023-08-24T15:31:45;27.50;55.50
82243;DHT22;71844;51.528;4.442;2023-08-24T15:34:12;27.40;55.70
82243;DHT22;71844;51.528;4.442;2023-08-24T15:36:40;27.40;55.90
82243;DHT22;71844;51.528;4.442;2023-08-24T15:39:07;27.50;55.80
82243;DHT22;71844;51.528;4.442;2023-08-24T15:41:35;27.50;55.80
82243;DHT22;71844;51.528;4.442;2023-08-24T15:44:02;27.50;55.80
82243;DHT22;71844;51.528;4.442;2023-08-24T15:46:30;27.40;55.80
82243;DHT22;71844;51.528;4.442;2023-08-24T15:48:58;27.30;55.80
82243;DHT22;71844;51.528;4.442;2023-08-24T15:51:25;27.20;56.10